Time;durP1;ratioP1;P1;durP2;ratioP2;P2;SDS_P1;SDS_P2;PMS_P1;PMS_P2;Temp;Humidity;BMP_temperature;BMP_pressure;BME280_temperature;BME280_humidity;BME280_pressure;Samples;Min_cycle;Max_cycle;Signal;HPM_P1;HPM_P2
2023/05/10 00:01:50;;;;;;;7.90;5.60;;;14.50;99.90;;;;;;5018405;28;20459;-79
2023/05/10 00:04:17;;;;;;;6.30;4.70;;;14.30;99.90;;;;;;5020164;28;21065;-78
2023/05/10 00:06:43;;;;;;;6.00;5.40;;;14.30;99.90;;;;;;5021245;28;20513;-78
2023/05/10 00:09:10;;;;;;;5.70;5.10;;;14.40;99.90;;;;;;5018855;28;20459;-80
2023/05/10 00:11:37;;;;;;;8.07;6.17;;;14.40;99.90;;;;;;5016512;28;20564;-79
2023/05/10 00:14:04;;;;;;;7.40;5.30;;;14.40;99.90;;;;;;5016290;28;20479;-79
2023/05/10 00:16:32;;;;;;;7.50;5.10;;;14.40;99.90;;;;;;5014361;28;20902;-79
2023/05/10 00:18:59;;;;;;;8.83;6.63;;;14.40;99.90;;;;;;5017013;28;20491;-79
2023/05/10 00:21:28;;;;;;;8.80;7.10;;;14.40;99.90;;;;;;5015898;28;20464;-79
2023/05/10 00:23:54;;;;;;;8.90;7.10;;;14.30;99.90;;;;;;5015653;28;20657;-77
2023/05/10 00:26:21;;;;;;;7.70;6.43;;;14.30;99.90;;;;;;5015584;28;20946;-79
2023/05/10 00:28:48;;;;;;;9.70;7.90;;;14.30;99.90;;;;;;5015182;28;20463;-79
2023/05/10 00:31:15;;;;;;;7.60;6.07;;;14.30;99.90;;;;;;5015837;28;20463;-78
2023/05/10 00:33:43;;;;;;;7.10;5.30;;;14.20;99.90;;;;;;5014473;28;20894;-80
2023/05/10 00:36:10;;;;;;;8.50;7.40;;;14.20;99.90;;;;;;5015659;28;20556;-79
2023/05/10 00:38:37;;;;;;;6.83;5.33;;;14.20;99.90;;;;;;5015900;28;20466;-79
2023/05/10 00:41:05;;;;;;;6.60;5.80;;;14.20;99.90;;;;;;5014329;28;20494;-80
2023/05/10 00:43:31;;;;;;;9.47;7.87;;;14.20;99.90;;;;;;5014814;28;20587;-79
2023/05/10 00:45:58;;;;;;;9.73;7.77;;;14.20;99.90;;;;;;5015929;28;20455;-80
2023/05/10 00:48:25;;;;;;;11.80;9.57;;;14.30;99.90;;;;;;5016081;28;20531;-78
2023/05/10 00:50:53;;;;;;;11.80;10.30;;;14.30;99.90;;;;;;5015429;28;20454;-80
2023/05/10 00:53:20;;;;;;;11.50;9.63;;;14.20;99.90;;;;;;5014855;28;20803;-79
2023/05/10 00:55:47;;;;;;;14.00;9.30;;;14.30;99.90;;;;;;5015235;28;20458;-79
2023/05/10 00:58:15;;;;;;;12.20;8.97;;;14.30;99.90;;;;;;5015125;28;20456;-80
2023/05/10 01:00:44;;;;;;;14.43;11.33;;;14.30;99.90;;;;;;5019403;28;20499;-79
2023/05/10 01:03:11;;;;;;;14.60;12.00;;;14.30;99.90;;;;;;5020780;28;20458;-79
2023/05/10 01:05:38;;;;;;;11.83;9.90;;;14.30;99.90;;;;;;5021737;28;20460;-79
2023/05/10 01:08:08;;;;;;;11.93;9.87;;;14.30;99.90;;;;;;5021540;28;20545;-80
2023/05/10 01:10:35;;;;;;;14.37;10.10;;;14.30;99.90;;;;;;5020898;28;20502;-79
2023/05/10 01:13:02;;;;;;;11.40;9.23;;;14.30;99.90;;;;;;5020237;28;20896;-78
2023/05/10 01:15:30;;;;;;;12.10;9.33;;;14.20;99.90;;;;;;5021288;28;20509;-78
2023/05/10 01:17:57;;;;;;;14.90;9.10;;;14.30;99.90;;;;;;5021663;28;20528;-79
2023/05/10 01:20:25;;;;;;;9.20;8.00;;;14.30;99.90;;;;;;5020867;28;20495;-79
2023/05/10 01:23:23;;;;;;;11.40;9.20;;;14.30;99.90;;;;;;5020300;28;20516;-79
2023/05/10 01:26:31;;;;;;;10.30;8.30;;;14.30;99.90;;;;;;5021548;28;20806;-78
2023/05/10 01:29:34;;;;;;;11.30;9.60;;;14.40;99.90;;;;;;5020977;28;20458;-79
2023/05/10 01:32:17;;;;;;;13.33;10.13;;;14.30;99.90;;;;;;5021107;28;20901;-79
2023/05/10 01:34:53;;;;;;;12.00;9.40;;;14.30;99.90;;;;;;5020457;28;20476;-79
2023/05/10 01:37:22;;;;;;;16.00;10.40;;;14.20;99.90;;;;;;5001630;28;20450;-78
2023/05/10 01:39:57;;;;;;;15.20;10.57;;;14.20;99.90;;;;;;5002430;28;20493;-79
2023/05/10 01:42:27;;;;;;;13.10;10.23;;;14.20;99.90;;;;;;5000903;28;20461;-78
2023/05/10 01:44:59;;;;;;;11.60;9.73;;;14.20;99.90;;;;;;5001766;28;20478;-80
2023/05/10 01:47:31;;;;;;;11.60;9.97;;;14.20;99.90;;;;;;5008327;28;20468;-77
2023/05/10 01:50:05;;;;;;;12.33;9.67;;;14.20;99.90;;;;;;5020110;28;20934;-82
2023/05/10 01:52:37;;;;;;;12.47;10.33;;;14.10;99.90;;;;;;5020611;28;20455;-78
2023/05/10 01:55:08;;;;;;;12.67;9.73;;;14.10;99.90;;;;;;5001715;28;20478;-79
2023/05/10 01:57:39;;;;;;;12.93;9.37;;;14.10;99.90;;;;;;5000840;28;20534;-79
2023/05/10 02:00:10;;;;;;;10.40;9.20;;;14.10;99.90;;;;;;5004461;28;20822;-80
2023/05/10 02:02:41;;;;;;;13.00;9.93;;;14.10;99.90;;;;;;5008723;28;20451;-79
2023/05/10 02:05:10;;;;;;;11.80;10.07;;;14.10;99.90;;;;;;5021756;28;20998;-79
2023/05/10 02:07:37;;;;;;;10.50;9.40;;;14.10;99.90;;;;;;5020206;28;20452;-79
2023/05/10 02:10:07;;;;;;;12.40;9.93;;;14.10;99.90;;;;;;5019563;28;20964;-78
2023/05/10 02:12:37;;;;;;;10.27;9.13;;;14.10;99.90;;;;;;5017118;28;20534;-80
2023/05/10 02:15:07;;;;;;;10.77;9.30;;;14.10;99.90;;;;;;5017718;28;20479;-80
2023/05/10 02:17:36;;;;;;;11.10;8.67;;;14.10;99.90;;;;;;5016657;28;20457;-79
2023/05/10 02:20:07;;;;;;;11.57;8.60;;;14.00;99.90;;;;;;5017345;28;20522;-79
2023/05/10 02:22:36;;;;;;;11.10;9.90;;;14.00;99.90;;;;;;5016604;28;20445;-79
2023/05/10 02:25:05;;;;;;;11.83;9.00;;;14.00;99.90;;;;;;5017484;28;20516;-79
2023/05/10 02:27:32;;;;;;;13.23;9.30;;;13.90;99.90;;;;;;5017428;28;20469;-79
2023/05/10 02:30:00;;;;;;;11.60;8.60;;;13.80;99.90;;;;;;5017197;28;20460;-80
2023/05/10 02:32:29;;;;;;;10.50;9.40;;;13.80;99.90;;;;;;5016902;28;20456;-80
2023/05/10 02:34:58;;;;;;;13.57;9.20;;;13.80;99.90;;;;;;5016724;28;20476;-80
2023/05/10 02:37:27;;;;;;;13.80;9.30;;;13.80;99.90;;;;;;5017175;28;20457;-79
2023/05/10 02:39:56;;;;;;;11.13;9.43;;;13.80;99.90;;;;;;5010504;28;20493;-79
2023/05/10 02:42:27;;;;;;;10.37;8.70;;;13.80;99.90;;;;;;5017233;28;20462;-79
2023/05/10 02:44:57;;;;;;;12.47;9.47;;;13.80;99.90;;;;;;5016581;28;20473;-77
2023/05/10 02:47:24;;;;;;;13.47;9.73;;;13.70;99.90;;;;;;5016507;28;20454;-79
2023/05/10 02:49:51;;;;;;;12.57;9.20;;;13.80;99.90;;;;;;5015855;28;20459;-80
2023/05/10 02:52:30;;;;;;;12.43;10.40;;;13.70;99.90;;;;;;5016045;28;20457;-79
2023/05/10 02:55:01;;;;;;;12.53;9.90;;;13.70;99.90;;;;;;5015660;28;20493;-78
2023/05/10 02:57:32;;;;;;;15.07;9.03;;;13.70;99.90;;;;;;5015968;28;20450;-77
2023/05/10 03:00:00;;;;;;;12.53;10.33;;;13.70;99.90;;;;;;5015921;28;20481;-79
2023/05/10 03:02:27;;;;;;;12.27;9.90;;;13.60;99.90;;;;;;5015565;28;20481;-77
2023/05/10 03:04:54;;;;;;;14.60;10.30;;;13.60;99.90;;;;;;5015332;28;20626;-79
2023/05/10 03:07:21;;;;;;;13.57;11.37;;;13.60;99.90;;;;;;5015543;28;20479;-78
2023/05/10 03:09:50;;;;;;;18.50;12.33;;;13.60;99.90;;;;;;5015213;28;20453;-79
2023/05/10 03:12:27;;;;;;;16.07;10.23;;;13.60;99.90;;;;;;5015519;28;20456;-79
2023/05/10 03:15:01;;;;;;;21.17;11.70;;;13.60;99.90;;;;;;5015535;28;21006;-78
2023/05/10 03:17:33;;;;;;;12.50;10.70;;;13.60;99.90;;;;;;5015272;28;20451;-78
2023/05/10 03:20:06;;;;;;;14.13;10.33;;;13.60;99.90;;;;;;5013404;28;20481;-80
2023/05/10 03:22:38;;;;;;;13.33;10.93;;;13.70;99.90;;;;;;5014647;28;20461;-78
2023/05/10 03:25:09;;;;;;;12.10;9.63;;;13.70;99.90;;;;;;5014129;28;20480;-79
2023/05/10 03:27:37;;;;;;;12.23;10.00;;;13.70;99.90;;;;;;5015127;28;20507;-79
2023/05/10 03:30:06;;;;;;;14.40;10.87;;;13.70;99.90;;;;;;5015127;28;20470;-78
2023/05/10 03:32:34;;;;;;;12.47;9.30;;;13.70;99.90;;;;;;5015030;28;20483;-78
2023/05/10 03:35:02;;;;;;;15.80;10.73;;;13.70;99.90;;;;;;5015324;28;20542;-77
2023/05/10 03:37:28;;;;;;;14.23;10.10;;;13.70;99.90;;;;;;5014899;28;20461;-80
2023/05/10 03:39:55;;;;;;;14.33;10.23;;;13.80;99.90;;;;;;5014425;28;20501;-78
2023/05/10 03:42:23;;;;;;;16.43;10.90;;;13.80;99.90;;;;;;5014311;28;20457;-77
2023/05/10 03:44:50;;;;;;;11.63;9.70;;;13.80;99.90;;;;;;5015184;28;20469;-77
2023/05/10 03:47:17;;;;;;;14.20;9.87;;;13.80;99.90;;;;;;5014689;28;20538;-79
2023/05/10 03:49:44;;;;;;;11.60;8.93;;;13.80;99.90;;;;;;5014822;28;20461;-80
2023/05/10 03:52:10;;;;;;;14.73;9.67;;;13.80;99.90;;;;;;5014689;28;20463;-78
2023/05/10 03:54:37;;;;;;;15.07;9.73;;;13.80;99.90;;;;;;5014264;28;20502;-78
2023/05/10 03:57:04;;;;;;;11.83;9.10;;;13.80;99.90;;;;;;5014053;28;20450;-78
2023/05/10 03:59:32;;;;;;;11.00;8.00;;;13.90;99.90;;;;;;5013985;28;20457;-79
2023/05/10 04:01:59;;;;;;;12.10;8.30;;;13.90;99.90;;;;;;5014360;28;20489;-78
2023/05/10 04:04:26;;;;;;;13.53;9.30;;;13.90;99.90;;;;;;5013298;28;20536;-79
2023/05/10 04:06:53;;;;;;;16.20;9.20;;;13.90;99.90;;;;;;5013804;28;20451;-78
2023/05/10 04:09:19;;;;;;;12.63;9.27;;;13.90;99.90;;;;;;5014582;28;20562;-79
2023/05/10 04:11:46;;;;;;;15.03;11.17;;;13.90;99.90;;;;;;5014409;28;20959;-78
2023/05/10 04:14:13;;;;;;;18.17;11.10;;;13.90;99.90;;;;;;5013943;28;20476;-77
2023/05/10 04:16:41;;;;;;;16.47;11.10;;;13.90;99.90;;;;;;5014220;28;20456;-79
2023/05/10 04:19:08;;;;;;;18.37;11.40;;;13.90;99.90;;;;;;5013781;28;20459;-79
2023/05/10 04:21:35;;;;;;;18.77;14.23;;;13.90;99.90;;;;;;5013006;28;20489;-79
2023/05/10 04:24:01;;;;;;;15.37;12.83;;;13.80;99.90;;;;;;5013833;28;20508;-78
2023/05/10 04:26:28;;;;;;;23.30;13.80;;;13.80;99.90;;;;;;5014638;28;20457;-78
2023/05/10 04:28:55;;;;;;;19.90;13.30;;;13.90;99.90;;;;;;5015706;28;20447;-78
2023/05/10 04:31:22;;;;;;;23.80;14.90;;;13.90;99.90;;;;;;5014626;28;20461;-79
2023/05/10 04:33:50;;;;;;;20.70;15.00;;;13.90;99.90;;;;;;5014951;28;20475;-78
2023/05/10 04:36:17;;;;;;;25.03;16.10;;;13.90;99.90;;;;;;5015068;28;20454;-78
2023/05/10 04:38:44;;;;;;;24.37;16.83;;;13.90;99.90;;;;;;5016254;28;20458;-79
2023/05/10 04:41:11;;;;;;;23.30;16.73;;;13.90;99.90;;;;;;5014449;28;20483;-78
2023/05/10 04:43:39;;;;;;;33.50;20.40;;;13.90;99.90;;;;;;5015264;28;20481;-78
2023/05/10 04:46:06;;;;;;;36.97;20.70;;;13.90;99.90;;;;;;5014317;28;20539;-79
2023/05/10 04:48:33;;;;;;;30.37;19.80;;;13.90;99.90;;;;;;5023012;28;20468;-79
2023/05/10 04:51:03;;;;;;;25.97;19.30;;;14.00;99.90;;;;;;5018703;28;20947;-80
2023/05/10 04:53:30;;;;;;;30.70;19.97;;;13.90;99.90;;;;;;5015970;28;21147;-81
2023/05/10 04:55:57;;;;;;;34.47;20.73;;;13.90;99.90;;;;;;5016960;28;20467;-81
2023/05/10 04:58:24;;;;;;;32.77;20.40;;;14.00;99.90;;;;;;5017785;28;20456;-82
2023/05/10 05:00:50;;;;;;;32.43;20.83;;;14.00;99.90;;;;;;5017725;28;20491;-81
2023/05/10 05:03:17;;;;;;;27.30;17.50;;;14.00;99.90;;;;;;5017178;28;20518;-81
2023/05/10 05:05:44;;;;;;;30.27;19.90;;;14.10;99.90;;;;;;5017075;28;20532;-81
2023/05/10 05:08:13;;;;;;;30.63;19.07;;;14.10;99.90;;;;;;5018506;28;20453;-80
2023/05/10 05:10:39;;;;;;;30.13;19.57;;;14.10;99.90;;;;;;5016369;28;20460;-79
2023/05/10 05:13:06;;;;;;;33.23;22.60;;;14.20;99.90;;;;;;5015143;28;20465;-79
2023/05/10 05:15:33;;;;;;;31.20;20.83;;;14.10;99.90;;;;;;5015552;28;20479;-80
2023/05/10 05:18:00;;;;;;;30.87;20.80;;;14.20;99.90;;;;;;5016074;28;20511;-79
2023/05/10 05:20:27;;;;;;;39.03;23.57;;;14.20;99.90;;;;;;5015204;28;20856;-80
2023/05/10 05:22:54;;;;;;;30.70;20.70;;;14.20;99.90;;;;;;5015385;28;20551;-78
2023/05/10 05:25:22;;;;;;;31.63;22.63;;;14.30;99.90;;;;;;5014595;28;20483;-80
2023/05/10 05:27:49;;;;;;;31.70;21.73;;;14.30;99.90;;;;;;5015495;28;20580;-80
2023/05/10 05:30:16;;;;;;;33.20;22.23;;;14.40;99.90;;;;;;5015210;28;20464;-79
2023/05/10 05:32:43;;;;;;;27.97;22.03;;;14.40;99.90;;;;;;5014710;28;20457;-79
2023/05/10 05:35:09;;;;;;;29.33;21.13;;;14.40;99.90;;;;;;5015749;28;20496;-80
2023/05/10 05:37:37;;;;;;;36.03;22.60;;;14.50;99.90;;;;;;5015396;28;20555;-80
2023/05/10 05:40:04;;;;;;;31.40;23.53;;;14.50;99.90;;;;;;5015914;28;20543;-80
2023/05/10 05:42:32;;;;;;;35.80;24.10;;;14.60;99.90;;;;;;5014484;28;20486;-79
2023/05/10 05:44:59;;;;;;;32.07;23.33;;;14.70;99.90;;;;;;5015060;28;20480;-80
2023/05/10 05:47:26;;;;;;;36.97;24.47;;;14.80;99.90;;;;;;5016753;28;20451;-80
2023/05/10 05:49:53;;;;;;;35.57;23.70;;;15.00;99.90;;;;;;5020097;28;20488;-81
2023/05/10 05:52:21;;;;;;;34.97;23.20;;;15.10;99.90;;;;;;5017547;28;20448;-82
2023/05/10 05:54:47;;;;;;;34.03;22.53;;;15.20;99.90;;;;;;5019244;28;20536;-81
2023/05/10 05:57:14;;;;;;;40.13;26.27;;;15.10;99.90;;;;;;5019402;28;20465;-81
2023/05/10 05:59:43;;;;;;;31.13;23.50;;;15.00;99.90;;;;;;5019470;28;20472;-81
2023/05/10 06:02:10;;;;;;;33.10;23.03;;;15.10;99.90;;;;;;5017778;28;20486;-83
2023/05/10 06:04:37;;;;;;;30.30;23.10;;;15.00;99.90;;;;;;5018328;28;20849;-82
2023/05/10 06:07:04;;;;;;;30.43;23.20;;;15.20;99.90;;;;;;5018846;28;20463;-81
2023/05/10 06:09:31;;;;;;;33.23;22.90;;;15.20;99.90;;;;;;5019482;28;20463;-82
2023/05/10 06:11:58;;;;;;;31.07;22.13;;;15.20;99.90;;;;;;5019136;28;20456;-82
2023/05/10 06:14:24;;;;;;;29.77;22.83;;;15.20;99.90;;;;;;5019350;28;21020;-83
2023/05/10 06:16:52;;;;;;;31.93;24.63;;;15.20;99.90;;;;;;5019148;28;20477;-82
2023/05/10 06:19:19;;;;;;;35.93;25.57;;;15.20;99.90;;;;;;5019188;28;20803;-80
2023/05/10 06:21:46;;;;;;;32.33;24.77;;;15.20;99.90;;;;;;5018577;28;20660;-81
2023/05/10 06:24:13;;;;;;;33.90;23.90;;;15.10;99.90;;;;;;5019592;28;20993;-83
2023/05/10 06:26:40;;;;;;;36.80;25.00;;;15.20;99.90;;;;;;5019739;28;20458;-81
2023/05/10 06:29:06;;;;;;;31.23;23.07;;;15.30;99.90;;;;;;5018828;28;20880;-81
2023/05/10 06:31:33;;;;;;;27.90;21.27;;;15.40;99.90;;;;;;5016863;28;20498;-82
2023/05/10 06:34:01;;;;;;;31.70;22.70;;;15.50;99.90;;;;;;5018831;28;20488;-81
2023/05/10 06:36:28;;;;;;;29.87;21.80;;;15.70;99.90;;;;;;5018410;28;20964;-80
2023/05/10 06:38:56;;;;;;;29.63;21.83;;;15.90;99.90;;;;;;5016127;28;20476;-80
2023/05/10 06:41:23;;;;;;;28.80;22.47;;;16.00;99.90;;;;;;5009344;28;20490;-79
2023/05/10 06:43:50;;;;;;;26.47;20.90;;;16.30;99.90;;;;;;5014469;28;20996;-81
2023/05/10 06:46:17;;;;;;;25.97;19.47;;;16.40;99.90;;;;;;5018477;28;20532;-82
2023/05/10 06:48:44;;;;;;;28.57;20.83;;;16.30;99.90;;;;;;5017313;28;20555;-84
2023/05/10 06:51:12;;;;;;;25.33;18.80;;;16.30;99.90;;;;;;5018500;28;20458;-80
2023/05/10 06:53:39;;;;;;;25.23;20.73;;;16.40;99.90;;;;;;5017568;28;20575;-82
2023/05/10 06:56:06;;;;;;;27.60;21.97;;;16.40;99.90;;;;;;5058727;22;20491;-84
2023/05/10 06:58:33;;;;;;;28.00;21.47;;;16.40;99.90;;;;;;5034459;28;20462;-84
2023/05/10 07:01:03;;;;;;;24.30;18.53;;;16.60;99.90;;;;;;5010464;28;20476;-84
2023/05/10 07:03:30;;;;;;;25.97;19.77;;;16.80;99.90;;;;;;5034043;28;20457;-83
2023/05/10 07:06:02;;;;;;;30.80;19.80;;;17.10;99.90;;;;;;5036418;28;20977;-84
2023/05/10 07:08:31;;;;;;;30.23;21.03;;;17.30;99.90;;;;;;5036332;28;20493;-84
2023/05/10 07:11:01;;;;;;;25.83;19.37;;;17.30;99.90;;;;;;5036911;28;20462;-84
2023/05/10 07:13:28;;;;;;;27.83;19.80;;;17.20;99.90;;;;;;5038527;28;20457;-83
2023/05/10 07:15:55;;;;;;;27.60;18.17;;;17.40;99.90;;;;;;5019570;28;20476;-82
2023/05/10 07:18:21;;;;;;;28.97;18.90;;;17.40;99.90;;;;;;5012371;28;20450;-83
2023/05/10 07:20:48;;;;;;;27.23;19.57;;;17.20;99.90;;;;;;5038125;28;20448;-82
2023/05/10 07:23:15;;;;;;;35.53;20.07;;;17.20;99.90;;;;;;5040040;28;20467;-83
2023/05/10 07:25:46;;;;;;;26.53;19.30;;;17.40;99.90;;;;;;5038496;28;21023;-84
2023/05/10 07:28:13;;;;;;;28.07;20.27;;;17.50;99.90;;;;;;5034034;28;20453;-84
2023/05/10 07:30:40;;;;;;;32.67;20.27;;;17.60;99.90;;;;;;5037241;28;20953;-83
2023/05/10 07:33:07;;;;;;;27.93;21.30;;;17.50;99.90;;;;;;5040379;28;20482;-82
2023/05/10 07:35:34;;;;;;;29.43;19.87;;;17.40;99.90;;;;;;5034589;28;20508;-83
2023/05/10 07:38:00;;;;;;;28.47;20.80;;;17.60;99.90;;;;;;5037941;28;20485;-83
2023/05/10 07:40:27;;;;;;;27.00;18.87;;;17.80;99.90;;;;;;5037904;28;20464;-83
2023/05/10 07:42:56;;;;;;;26.90;18.90;;;18.10;99.90;;;;;;5037934;28;20600;-83
2023/05/10 07:45:23;;;;;;;23.87;18.03;;;18.20;99.90;;;;;;5035350;28;20480;-84
2023/05/10 07:47:50;;;;;;;25.43;19.40;;;18.40;97.10;;;;;;5037357;28;20466;-82
2023/05/10 07:50:17;;;;;;;23.73;16.50;;;18.70;1.00;;;;;;5033121;28;20482;-83
2023/05/10 07:52:43;;;;;;;25.57;19.57;;;18.80;1.00;;;;;;5038084;28;20455;-84
2023/05/10 07:55:10;;;;;;;24.20;17.00;;;18.80;1.00;;;;;;5036311;28;20475;-83
2023/05/10 07:57:37;;;;;;;25.60;19.57;;;19.10;1.00;;;;;;5037741;28;20896;-83
2023/05/10 08:00:07;;;;;;;27.70;20.50;;;19.30;1.00;;;;;;5038184;28;20827;-84
2023/05/10 08:02:35;;;;;;;26.67;17.90;;;19.10;1.00;;;;;;5054775;28;20726;-84
2023/05/10 08:05:02;;;;;;;28.00;18.57;;;19.00;1.00;;;;;;5037560;28;20508;-83
2023/05/10 08:07:29;;;;;;;27.70;18.63;;;18.70;20.60;;;;;;5036720;28;20459;-84
2023/05/10 08:09:55;;;;;;;27.00;19.40;;;18.50;1.00;;;;;;5036399;28;20477;-85
2023/05/10 08:12:22;;;;;;;27.57;21.47;;;18.10;1.00;;;;;;5038064;28;20533;-84
2023/05/10 08:14:49;;;;;;;26.50;18.10;;;17.60;11.40;;;;;;5041620;28;20469;-84
2023/05/10 08:17:17;;;;;;;27.40;19.93;;;17.50;64.20;;;;;;5035046;28;20452;-84
2023/05/10 08:19:44;;;;;;;25.43;18.53;;;17.40;99.90;;;;;;5034290;28;21041;-84
2023/05/10 08:22:11;;;;;;;29.30;19.40;;;17.30;99.90;;;;;;5036210;28;20495;-83
2023/05/10 08:24:38;;;;;;;34.97;22.57;;;17.30;99.90;;;;;;5034659;28;20553;-83
2023/05/10 08:27:05;;;;;;;44.27;29.40;;;17.20;99.90;;;;;;5036109;28;20502;-83
2023/05/10 08:29:32;;;;;;;32.77;21.97;;;17.00;99.90;;;;;;5043835;28;20478;-84
2023/05/10 08:32:00;;;;;;;30.03;20.90;;;17.00;99.90;;;;;;5040408;28;20446;-84
2023/05/10 08:34:28;;;;;;;29.33;20.40;;;17.10;99.90;;;;;;5039496;28;20457;-84
2023/05/10 08:36:55;;;;;;;30.00;20.57;;;17.40;99.90;;;;;;5038977;28;20482;-84
2023/05/10 08:39:23;;;;;;;25.33;19.63;;;17.70;99.90;;;;;;5038857;28;20543;-85
2023/05/10 08:41:53;;;;;;;29.43;23.07;;;18.10;99.90;;;;;;5038621;28;20538;-84
2023/05/10 08:44:21;;;;;;;25.00;19.93;;;18.00;96.20;;;;;;5037995;28;20461;-84
2023/05/10 08:46:50;;;;;;;26.27;20.00;;;17.90;63.60;;;;;;5038511;28;20458;-84
2023/05/10 08:49:20;;;;;;;30.17;21.30;;;18.10;34.60;;;;;;5037774;28;20493;-85
2023/05/10 08:51:55;;;;;;;27.80;19.33;;;18.10;79.40;;;;;;5027733;28;20446;-84
2023/05/10 08:54:23;;;;;;;29.60;20.40;;;18.10;30.60;;;;;;5028558;28;20463;-84
2023/05/10 08:56:49;;;;;;;27.00;19.17;;;18.20;23.50;;;;;;5036808;28;20456;-84
2023/05/10 08:59:16;;;;;;;26.70;18.63;;;18.20;11.10;;;;;;5038241;28;20579;-83
2023/05/10 09:01:45;;;;;;;28.87;16.03;;;18.10;18.90;;;;;;5040212;28;20511;-85
2023/05/10 09:04:12;;;;;;;23.83;17.50;;;18.10;55.70;;;;;;5041176;28;20545;-85
2023/05/10 09:06:40;;;;;;;24.27;17.27;;;18.10;37.60;;;;;;5042786;28;20482;-85
2023/05/10 09:09:08;;;;;;;21.10;15.93;;;17.90;5.20;;;;;;5043187;28;20522;-85
2023/05/10 09:11:35;;;;;;;23.40;15.80;;;17.80;59.50;;;;;;5042412;28;20452;-85
2023/05/10 09:14:03;;;;;;;20.87;15.00;;;17.90;52.00;;;;;;5042313;28;21001;-83
2023/05/10 09:16:29;;;;;;;18.30;13.77;;;17.90;54.70;;;;;;5042553;28;20526;-84
2023/05/10 09:18:57;;;;;;;19.37;13.73;;;18.10;13.30;;;;;;5042673;28;20455;-86
2023/05/10 09:21:24;;;;;;;17.20;13.47;;;18.10;1.00;;;;;;5044786;28;20530;-86
2023/05/10 09:23:51;;;;;;;17.73;13.50;;;18.30;1.00;;;;;;5046661;28;20984;-86
2023/05/10 09:26:23;;;;;;;17.90;14.20;;;18.30;1.00;;;;;;5046111;28;20476;-86
2023/05/10 09:28:54;;;;;;;17.87;13.20;;;18.50;23.60;;;;;;5046718;28;20461;-85
2023/05/10 09:31:21;;;;;;;17.37;14.07;;;18.60;1.00;;;;;;5045734;28;20448;-83
2023/05/10 09:33:48;;;;;;;20.00;14.63;;;18.80;1.00;;;;;;5045500;28;20543;-83
2023/05/10 09:36:16;;;;;;;17.83;15.20;;;18.80;1.00;;;;;;5043361;28;20479;-84
2023/05/10 09:38:47;;;;;;;19.57;15.03;;;19.00;1.00;;;;;;5042751;28;20483;-85
2023/05/10 09:41:20;;;;;;;14.97;11.87;;;19.60;1.00;;;;;;5043755;28;20452;-83
2023/05/10 09:43:46;;;;;;;16.83;11.47;;;19.90;99.90;;;;;;5043283;28;20481;-85
2023/05/10 09:46:13;;;;;;;12.03;10.20;;;20.30;99.90;;;;;;5042406;28;20478;-84
2023/05/10 09:48:43;;;;;;;12.70;9.53;;;22.50;99.90;;;;;;5042601;28;20897;-84
2023/05/10 09:51:10;;;;;;;10.90;9.03;;;24.70;99.90;;;;;;5041771;28;20980;-85
2023/05/10 09:53:37;;;;;;;10.67;8.33;;;26.10;1.00;;;;;;5040753;28;20447;-84
2023/05/10 09:56:04;;;;;;;13.30;9.93;;;27.20;1.00;;;;;;5041173;28;20510;-84
2023/05/10 09:58:37;;;;;;;10.93;8.50;;;27.60;1.00;;;;;;5041839;28;20460;-84
2023/05/10 10:01:04;;;;;;;11.50;9.50;;;27.60;1.00;;;;;;5040606;28;20456;-85
2023/05/10 10:03:31;;;;;;;10.87;8.10;;;28.00;1.00;;;;;;5042197;28;20523;-85
2023/05/10 10:05:58;;;;;;;12.13;9.80;;;29.90;1.00;;;;;;5041704;28;20547;-83
2023/05/10 10:08:25;;;;;;;12.73;10.57;;;30.70;1.00;;;;;;5042261;28;20543;-84
2023/05/10 10:10:52;;;;;;;12.93;11.00;;;29.30;1.00;;;;;;5051091;28;20463;-85
2023/05/10 10:13:19;;;;;;;14.97;10.40;;;27.50;1.00;;;;;;5046098;28;20539;-84
2023/05/10 10:15:50;;;;;;;14.20;11.27;;;26.60;1.00;;;;;;5045785;28;20468;-84
2023/05/10 10:18:18;;;;;;;12.97;11.67;;;25.10;1.00;;;;;;5047164;28;20448;-83
2023/05/10 10:20:45;;;;;;;17.00;13.07;;;24.20;1.00;;;;;;5058762;28;20468;-86
2023/05/10 10:23:12;;;;;;;21.47;15.37;;;23.30;1.00;;;;;;5060210;28;20488;-85
2023/05/10 10:25:39;;;;;;;18.07;13.53;;;22.40;1.00;;;;;;5051186;28;21063;-83
2023/05/10 10:28:22;;;;;;;18.33;13.80;;;22.00;99.90;;;;;;5037202;28;20453;-83
2023/05/10 10:30:55;;;;;;;19.40;13.93;;;21.70;1.00;;;;;;5037030;28;20456;-82
2023/05/10 10:33:47;;;;;;;19.03;15.60;;;21.60;99.90;;;;;;5035897;28;20535;-84
2023/05/10 10:36:14;;;;;;;15.20;11.90;;;21.50;98.50;;;;;;5035793;28;20483;-82
2023/05/10 10:39:00;;;;;;;16.70;12.70;;;21.60;1.00;;;;;;5036364;28;20453;-81
2023/05/10 10:41:33;;;;;;;17.03;12.00;;;21.70;99.90;;;;;;5039211;28;20457;-81
2023/05/10 10:44:25;;;;;;;16.50;13.07;;;21.90;99.90;;;;;;5037134;28;20488;-82
2023/05/10 10:47:11;;;;;;;15.53;10.57;;;21.90;12.90;;;;;;5038161;28;20460;-83
2023/05/10 10:49:48;;;;;;;13.80;11.10;;;21.60;99.90;;;;;;5038481;28;20460;-82
2023/05/10 10:52:21;;;;;;;15.67;11.30;;;21.50;1.00;;;;;;5037716;28;20453;-82
2023/05/10 10:54:52;;;;;;;12.77;10.60;;;21.20;1.00;;;;;;5042018;28;20482;-83
2023/05/10 10:57:20;;;;;;;14.63;12.10;;;20.60;99.90;;;;;;5039083;28;20445;-81
2023/05/10 10:59:48;;;;;;;17.40;14.60;;;20.40;1.00;;;;;;5037279;28;20487;-79
2023/05/10 11:02:45;;;;;;;14.83;13.40;;;20.30;1.00;;;;;;5037346;28;20495;-81
2023/05/10 11:05:26;;;;;;;14.00;11.60;;;20.10;99.90;;;;;;5041174;28;20544;-81
2023/05/10 11:07:53;;;;;;;14.40;11.90;;;20.10;99.90;;;;;;5037029;28;20445;-80
2023/05/10 11:10:21;;;;;;;14.03;10.97;;;19.80;45.30;;;;;;5037305;28;20460;-80
2023/05/10 11:12:55;;;;;;;13.97;11.03;;;19.80;99.90;;;;;;5038156;28;20445;-81
2023/05/10 11:15:29;;;;;;;14.00;11.70;;;19.80;99.90;;;;;;5039549;28;20553;-81
2023/05/10 11:17:58;;;;;;;16.90;12.30;;;19.60;99.90;;;;;;5039509;28;20479;-81
2023/05/10 11:20:32;;;;;;;15.10;10.63;;;19.10;99.90;;;;;;5039579;28;20455;-81
2023/05/10 11:23:12;;;;;;;16.83;11.90;;;19.10;99.90;;;;;;5039146;28;20591;-81
2023/05/10 11:25:43;;;;;;;14.53;12.30;;;19.20;1.00;;;;;;5031694;28;20502;-81
2023/05/10 11:28:10;;;;;;;17.40;12.00;;;19.00;1.00;;;;;;5037646;28;20519;-80
2023/05/10 11:30:39;;;;;;;15.50;11.20;;;19.00;99.90;;;;;;5039278;28;20518;-81
2023/05/10 11:33:08;;;;;;;10.47;8.57;;;19.50;99.90;;;;;;5040387;28;20443;-81
2023/05/10 11:35:38;;;;;;;11.10;9.50;;;20.00;99.90;;;;;;5037976;28;20477;-81
2023/05/10 11:38:07;;;;;;;12.90;10.43;;;20.40;99.90;;;;;;5042231;28;21000;-81
2023/05/10 11:40:34;;;;;;;11.30;8.57;;;20.70;1.00;;;;;;5041926;28;20457;-82
2023/05/10 11:43:01;;;;;;;14.27;9.83;;;21.20;1.00;;;;;;5039614;28;20562;-82
2023/05/10 11:45:28;;;;;;;10.30;8.60;;;21.40;99.90;;;;;;5039055;28;20479;-83
2023/05/10 11:47:56;;;;;;;12.50;9.90;;;21.80;99.90;;;;;;5040160;28;20445;-83
2023/05/10 11:50:24;;;;;;;14.40;10.57;;;21.80;99.90;;;;;;5042588;28;20516;-84
2023/05/10 11:52:52;;;;;;;11.17;9.53;;;21.80;27.70;;;;;;5047375;28;20449;-85
2023/05/10 11:55:19;;;;;;;12.90;9.70;;;21.50;15.10;;;;;;5048767;28;20501;-85
2023/05/10 11:57:46;;;;;;;9.63;7.23;;;21.80;46.50;;;;;;5048002;28;20460;-84
2023/05/10 12:00:14;;;;;;;13.97;9.50;;;21.50;99.90;;;;;;5045832;28;20448;-84
2023/05/10 12:02:41;;;;;;;9.97;7.30;;;21.00;1.00;;;;;;5046876;28;20488;-85
2023/05/10 12:05:09;;;;;;;10.47;8.63;;;20.80;99.90;;;;;;5045975;28;20769;-84
2023/05/10 12:07:37;;;;;;;10.43;8.80;;;21.10;99.90;;;;;;5044971;28;20455;-84
2023/05/10 12:10:06;;;;;;;12.30;9.00;;;21.00;99.90;;;;;;5044069;28;20544;-83
2023/05/10 12:12:41;;;;;;;14.73;10.90;;;20.90;99.90;;;;;;5044125;28;20453;-85
2023/05/10 12:15:12;;;;;;;11.80;9.33;;;20.40;99.90;;;;;;5039157;28;20853;-85
2023/05/10 12:17:40;;;;;;;9.80;8.73;;;20.50;7.30;;;;;;5037749;28;20480;-84
2023/05/10 12:20:20;;;;;;;13.83;9.53;;;20.90;99.90;;;;;;5037817;28;20449;-84
2023/05/10 12:23:01;;;;;;;14.50;9.03;;;21.00;99.90;;;;;;5036857;28;21074;-84
2023/05/10 12:25:32;;;;;;;10.23;8.60;;;21.20;99.90;;;;;;5038016;28;20508;-83
2023/05/10 12:28:01;;;;;;;13.30;10.30;;;21.60;59.80;;;;;;5037399;28;20595;-84
2023/05/10 12:30:29;;;;;;;10.83;8.93;;;21.70;1.00;;;;;;5035862;28;21036;-83
2023/05/10 12:33:01;;;;;;;9.00;7.60;;;22.40;1.00;;;;;;5036514;28;20451;-83
2023/05/10 12:35:31;;;;;;;10.70;8.70;;;23.30;1.00;;;;;;5037369;28;20472;-84
2023/05/10 12:37:59;;;;;;;10.90;9.33;;;24.40;1.00;;;;;;5036321;28;20456;-84
2023/05/10 12:40:26;;;;;;;14.30;9.27;;;25.10;1.00;;;;;;5034456;28;20457;-84
2023/05/10 12:42:53;;;;;;;12.80;9.37;;;26.40;1.00;;;;;;5033271;28;20494;-84